Airfield :
LOGIN :

Register | Disclaimer

   EN    FR    IT 

 










Legend :    VFR   Marginal VFR   IFR   Intensive IFR   Very Intensive IFR
Visi :
Ceiling :
>= 8 km
>= 3000ft
5 to 8 km
1000 to 3000 ft
1500m to 5 km
500 to 1000 ft
800 to 1500m
200 to 500 ft
< 800m
< 200 ft
Symbols :   Thunderstorms  Fog  Heavy snow  Heavy precipitations  Wind > 20 kt
SIGMETs :     Misc.  Thunderstorms  Icing  Turbulence  Mountain Waves  Volcanic Ashes






- Airport Elevation : 1234 ft
- IATA code : LUX


ELLX - Luxembourg Findel

CURRENT METAR :
  • 032250Z 16012KT 5000 RA SCT003 BKN005 03/02 Q0986 NOSIG

EXPIRED METARs :
  • 032220Z 16013KT 130V190 7000 RA SCT003 BKN005 02/02 Q0987 NOSIG
  • 032150Z 15014KT 6000 -RA SCT003 BKN005 02/02 Q0987 TEMPO 4500 RA BKN004
  • 032120Z 15012KT 6000 -RA SCT004 BKN006 02/01 Q0988 NOSIG
  • 032050Z 15013KT 130V200 6000 -RA SCT004 BKN006 02/01 Q0989 NOSIG
  • 032020Z 15012KT 7000 -RA SCT004 BKN006 02/01 Q0989 NOSIG

TAF TAF ELLX
Valid from the 03 at 18:00 until the 05 at 00:00 UTC


031700Z 0318/0424 16015G25KT 4000 -DZ BKN007
BECMG 0318/0322 6000 -RA BKN015
TEMPO 0320/0408 RA BKN012
BECMG 0414/0417 16005KT
BECMG 0420/0422 BKN010
ATIS : +352 4798 27300
Met : +352 4798 27010 / 27050



MET'MAP, your aeronautical weather chart ! - Copyright ORBIFLY December 2007 - Disclaimer

ORBIFLY MET'MAP TEAM :

Programming & Development : Alexandra Zaïnal
Concept & original design : Baudouin d'Aumeries
Assistance for programming : Marc-Olivier Méhu
Technical & hardware support : Manuel Goepfert

Contact : metmap@orbifly.com




SOURCES & CREDITS :

   NOAA